sensor_id;sensor_type;location;lat;lon;timestamp;P1;durP1;ratioP1;P2;durP2;ratioP2
13218;SDS011;6674;49.152;11.918;2023-07-28T00:01:09;4.30;;;4.00;;
13218;SDS011;6674;49.152;11.918;2023-07-28T00:03:36;4.73;;;4.33;;
13218;SDS011;6674;49.152;11.918;2023-07-28T00:06:02;5.30;;;4.90;;
13218;SDS011;6674;49.152;11.918;2023-07-28T00:08:29;4.77;;;4.33;;
13218;SDS011;6674;49.152;11.918;2023-07-28T00:10:56;5.30;;;4.90;;
13218;SDS011;6674;49.152;11.918;2023-07-28T00:13:23;4.30;;;3.90;;
13218;SDS011;6674;49.152;11.918;2023-07-28T00:15:51;5.57;;;5.00;;
13218;SDS011;6674;49.152;11.918;2023-07-28T00:18:17;4.63;;;4.23;;
13218;SDS011;6674;49.152;11.918;2023-07-28T00:20:46;3.97;;;3.67;;
13218;SDS011;6674;49.152;11.918;2023-07-28T00:23:13;4.60;;;4.20;;
13218;SDS011;6674;49.152;11.918;2023-07-28T00:25:40;4.47;;;4.07;;
13218;SDS011;6674;49.152;11.918;2023-07-28T00:28:07;5.63;;;5.13;;
13218;SDS011;6674;49.152;11.918;2023-07-28T00:30:33;5.07;;;4.67;;
13218;SDS011;6674;49.152;11.918;2023-07-28T00:33:02;5.20;;;4.80;;
13218;SDS011;6674;49.152;11.918;2023-07-28T00:35:28;5.00;;;4.60;;
13218;SDS011;6674;49.152;11.918;2023-07-28T00:37:55;4.90;;;4.60;;
13218;SDS011;6674;49.152;11.918;2023-07-28T00:40:21;4.30;;;4.00;;
13218;SDS011;6674;49.152;11.918;2023-07-28T00:42:48;4.17;;;3.80;;
13218;SDS011;6674;49.152;11.918;2023-07-28T00:45:15;5.37;;;4.87;;
13218;SDS011;6674;49.152;11.918;2023-07-28T00:47:42;4.97;;;4.57;;
13218;SDS011;6674;49.152;11.918;2023-07-28T00:50:10;5.17;;;4.67;;
13218;SDS011;6674;49.152;11.918;2023-07-28T00:52:37;4.07;;;3.70;;
13218;SDS011;6674;49.152;11.918;2023-07-28T00:55:05;5.03;;;4.63;;
13218;SDS011;6674;49.152;11.918;2023-07-28T00:57:33;5.43;;;4.90;;
13218;SDS011;6674;49.152;11.918;2023-07-28T01:00:00;5.00;;;4.50;;
13218;SDS011;6674;49.152;11.918;2023-07-28T01:02:27;4.73;;;4.33;;
13218;SDS011;6674;49.152;11.918;2023-07-28T01:04:54;3.90;;;3.50;;
13218;SDS011;6674;49.152;11.918;2023-07-28T01:07:25;4.63;;;4.23;;
13218;SDS011;6674;49.152;11.918;2023-07-28T01:09:56;5.00;;;4.60;;
13218;SDS011;6674;49.152;11.918;2023-07-28T01:12:27;4.20;;;3.90;;
13218;SDS011;6674;49.152;11.918;2023-07-28T01:14:53;4.40;;;4.00;;
13218;SDS011;6674;49.152;11.918;2023-07-28T01:17:20;4.50;;;4.20;;
13218;SDS011;6674;49.152;11.918;2023-07-28T01:19:49;4.70;;;4.30;;
13218;SDS011;6674;49.152;11.918;2023-07-28T01:22:28;4.50;;;4.10;;
13218;SDS011;6674;49.152;11.918;2023-07-28T01:25:14;4.40;;;4.00;;
13218;SDS011;6674;49.152;11.918;2023-07-28T01:27:49;5.47;;;4.90;;
13218;SDS011;6674;49.152;11.918;2023-07-28T01:30:18;5.57;;;5.07;;
13218;SDS011;6674;49.152;11.918;2023-07-28T01:32:46;5.73;;;5.23;;
13218;SDS011;6674;49.152;11.918;2023-07-28T01:35:13;5.93;;;5.43;;
13218;SDS011;6674;49.152;11.918;2023-07-28T01:37:40;5.40;;;4.90;;
13218;SDS011;6674;49.152;11.918;2023-07-28T01:40:07;5.60;;;5.10;;
13218;SDS011;6674;49.152;11.918;2023-07-28T01:42:34;5.73;;;5.20;;
13218;SDS011;6674;49.152;11.918;2023-07-28T01:45:02;5.90;;;5.13;;
13218;SDS011;6674;49.152;11.918;2023-07-28T01:47:29;5.50;;;5.00;;
13218;SDS011;6674;49.152;11.918;2023-07-28T01:49:56;5.73;;;5.03;;
13218;SDS011;6674;49.152;11.918;2023-07-28T01:52:23;5.77;;;5.20;;
13218;SDS011;6674;49.152;11.918;2023-07-28T01:54:51;6.07;;;5.53;;
13218;SDS011;6674;49.152;11.918;2023-07-28T01:57:19;5.70;;;5.07;;
13218;SDS011;6674;49.152;11.918;2023-07-28T01:59:45;6.53;;;5.93;;
13218;SDS011;6674;49.152;11.918;2023-07-28T02:02:13;5.67;;;5.17;;
13218;SDS011;6674;49.152;11.918;2023-07-28T02:04:40;5.57;;;5.17;;
13218;SDS011;6674;49.152;11.918;2023-07-28T02:07:07;5.77;;;5.27;;
13218;SDS011;6674;49.152;11.918;2023-07-28T02:09:33;6.30;;;5.70;;
13218;SDS011;6674;49.152;11.918;2023-07-28T02:12:00;5.97;;;5.47;;
13218;SDS011;6674;49.152;11.918;2023-07-28T02:14:27;5.23;;;4.73;;
13218;SDS011;6674;49.152;11.918;2023-07-28T02:16:53;5.70;;;5.10;;
13218;SDS011;6674;49.152;11.918;2023-07-28T02:19:21;5.30;;;4.90;;
13218;SDS011;6674;49.152;11.918;2023-07-28T02:21:48;5.63;;;5.23;;
13218;SDS011;6674;49.152;11.918;2023-07-28T02:24:15;5.43;;;4.93;;
13218;SDS011;6674;49.152;11.918;2023-07-28T02:26:42;5.50;;;5.00;;
13218;SDS011;6674;49.152;11.918;2023-07-28T02:29:08;5.80;;;5.30;;
13218;SDS011;6674;49.152;11.918;2023-07-28T02:31:35;5.80;;;5.40;;
13218;SDS011;6674;49.152;11.918;2023-07-28T02:34:02;5.30;;;4.80;;
13218;SDS011;6674;49.152;11.918;2023-07-28T02:36:29;5.30;;;4.80;;
13218;SDS011;6674;49.152;11.918;2023-07-28T02:38:57;4.30;;;4.00;;
13218;SDS011;6674;49.152;11.918;2023-07-28T02:41:24;4.97;;;4.57;;
13218;SDS011;6674;49.152;11.918;2023-07-28T02:43:52;5.20;;;4.73;;
13218;SDS011;6674;49.152;11.918;2023-07-28T02:46:18;4.80;;;4.40;;
13218;SDS011;6674;49.152;11.918;2023-07-28T02:48:45;4.43;;;4.13;;
13218;SDS011;6674;49.152;11.918;2023-07-28T02:51:12;5.47;;;4.97;;
13218;SDS011;6674;49.152;11.918;2023-07-28T02:53:40;4.00;;;3.70;;
13218;SDS011;6674;49.152;11.918;2023-07-28T02:56:06;4.33;;;3.93;;
13218;SDS011;6674;49.152;11.918;2023-07-28T02:58:33;4.00;;;3.70;;
13218;SDS011;6674;49.152;11.918;2023-07-28T03:01:00;4.17;;;3.83;;
13218;SDS011;6674;49.152;11.918;2023-07-28T03:03:26;4.70;;;4.30;;
13218;SDS011;6674;49.152;11.918;2023-07-28T03:05:53;4.47;;;4.17;;
13218;SDS011;6674;49.152;11.918;2023-07-28T03:08:20;4.40;;;4.00;;
13218;SDS011;6674;49.152;11.918;2023-07-28T03:10:48;4.60;;;4.20;;
13218;SDS011;6674;49.152;11.918;2023-07-28T03:13:15;4.70;;;4.30;;
13218;SDS011;6674;49.152;11.918;2023-07-28T03:15:41;5.17;;;4.67;;
13218;SDS011;6674;49.152;11.918;2023-07-28T03:18:08;3.93;;;3.63;;
13218;SDS011;6674;49.152;11.918;2023-07-28T03:20:34;4.43;;;4.13;;
13218;SDS011;6674;49.152;11.918;2023-07-28T03:23:02;3.80;;;3.50;;
13218;SDS011;6674;49.152;11.918;2023-07-28T03:25:29;4.80;;;4.40;;
13218;SDS011;6674;49.152;11.918;2023-07-28T03:27:58;4.10;;;3.80;;
13218;SDS011;6674;49.152;11.918;2023-07-28T03:30:24;4.33;;;3.87;;
13218;SDS011;6674;49.152;11.918;2023-07-28T03:32:51;5.20;;;4.70;;
13218;SDS011;6674;49.152;11.918;2023-07-28T03:35:18;11.50;;;5.77;;
13218;SDS011;6674;49.152;11.918;2023-07-28T03:37:44;5.03;;;4.70;;
13218;SDS011;6674;49.152;11.918;2023-07-28T03:40:11;9.23;;;5.90;;
13218;SDS011;6674;49.152;11.918;2023-07-28T03:42:37;6.37;;;5.87;;
13218;SDS011;6674;49.152;11.918;2023-07-28T03:45:06;12.23;;;5.90;;
13218;SDS011;6674;49.152;11.918;2023-07-28T03:47:34;4.83;;;4.43;;
13218;SDS011;6674;49.152;11.918;2023-07-28T03:50:02;10.07;;;5.00;;
13218;SDS011;6674;49.152;11.918;2023-07-28T03:52:28;21.10;;;7.27;;
13218;SDS011;6674;49.152;11.918;2023-07-28T03:54:55;4.70;;;4.40;;
13218;SDS011;6674;49.152;11.918;2023-07-28T03:57:22;5.67;;;5.27;;
13218;SDS011;6674;49.152;11.918;2023-07-28T03:59:48;5.10;;;4.70;;
13218;SDS011;6674;49.152;11.918;2023-07-28T04:02:16;4.53;;;4.23;;
13218;SDS011;6674;49.152;11.918;2023-07-28T04:04:43;4.10;;;3.80;;
13218;SDS011;6674;49.152;11.918;2023-07-28T04:07:10;3.90;;;3.60;;
13218;SDS011;6674;49.152;11.918;2023-07-28T04:09:37;3.30;;;3.10;;
13218;SDS011;6674;49.152;11.918;2023-07-28T04:12:04;2.83;;;2.63;;
13218;SDS011;6674;49.152;11.918;2023-07-28T04:14:30;3.80;;;3.50;;
13218;SDS011;6674;49.152;11.918;2023-07-28T04:16:57;3.83;;;3.53;;
13218;SDS011;6674;49.152;11.918;2023-07-28T04:19:25;3.70;;;3.40;;
13218;SDS011;6674;49.152;11.918;2023-07-28T04:21:54;3.83;;;3.53;;
13218;SDS011;6674;49.152;11.918;2023-07-28T04:24:20;4.20;;;3.90;;
13218;SDS011;6674;49.152;11.918;2023-07-28T04:26:47;3.77;;;3.57;;
13218;SDS011;6674;49.152;11.918;2023-07-28T04:29:15;3.77;;;3.50;;
13218;SDS011;6674;49.152;11.918;2023-07-28T04:31:41;3.83;;;3.53;;
13218;SDS011;6674;49.152;11.918;2023-07-28T04:34:08;5.20;;;4.80;;
13218;SDS011;6674;49.152;11.918;2023-07-28T04:36:36;3.90;;;3.60;;
13218;SDS011;6674;49.152;11.918;2023-07-28T04:39:03;4.27;;;3.97;;
13218;SDS011;6674;49.152;11.918;2023-07-28T04:41:29;3.73;;;3.47;;
13218;SDS011;6674;49.152;11.918;2023-07-28T04:43:56;3.63;;;3.37;;
13218;SDS011;6674;49.152;11.918;2023-07-28T04:46:23;4.97;;;4.57;;
13218;SDS011;6674;49.152;11.918;2023-07-28T04:48:49;5.10;;;4.70;;
13218;SDS011;6674;49.152;11.918;2023-07-28T04:51:16;5.17;;;4.77;;
13218;SDS011;6674;49.152;11.918;2023-07-28T04:53:44;4.57;;;4.17;;
13218;SDS011;6674;49.152;11.918;2023-07-28T04:56:12;3.73;;;3.53;;
13218;SDS011;6674;49.152;11.918;2023-07-28T04:58:38;4.50;;;4.10;;
13218;SDS011;6674;49.152;11.918;2023-07-28T05:01:05;5.20;;;4.60;;
13218;SDS011;6674;49.152;11.918;2023-07-28T05:03:35;4.43;;;4.13;;
13218;SDS011;6674;49.152;11.918;2023-07-28T05:06:02;5.20;;;4.80;;
13218;SDS011;6674;49.152;11.918;2023-07-28T05:08:29;5.37;;;4.87;;
13218;SDS011;6674;49.152;11.918;2023-07-28T05:10:57;5.60;;;5.20;;
13218;SDS011;6674;49.152;11.918;2023-07-28T05:13:24;6.30;;;5.80;;
13218;SDS011;6674;49.152;11.918;2023-07-28T05:15:52;7.10;;;6.40;;
13218;SDS011;6674;49.152;11.918;2023-07-28T05:18:19;6.60;;;6.00;;
13218;SDS011;6674;49.152;11.918;2023-07-28T05:20:45;6.70;;;6.10;;
13218;SDS011;6674;49.152;11.918;2023-07-28T05:23:12;6.90;;;6.23;;
13218;SDS011;6674;49.152;11.918;2023-07-28T05:25:39;7.57;;;6.87;;
13218;SDS011;6674;49.152;11.918;2023-07-28T05:28:07;6.60;;;6.10;;
13218;SDS011;6674;49.152;11.918;2023-07-28T05:30:34;6.80;;;6.20;;
13218;SDS011;6674;49.152;11.918;2023-07-28T05:33:01;6.27;;;5.70;;
13218;SDS011;6674;49.152;11.918;2023-07-28T05:35:28;6.60;;;6.00;;
13218;SDS011;6674;49.152;11.918;2023-07-28T05:37:54;6.20;;;5.60;;
13218;SDS011;6674;49.152;11.918;2023-07-28T05:40:27;6.17;;;5.67;;
13218;SDS011;6674;49.152;11.918;2023-07-28T05:42:54;5.10;;;4.60;;
13218;SDS011;6674;49.152;11.918;2023-07-28T05:45:22;6.07;;;5.47;;
13218;SDS011;6674;49.152;11.918;2023-07-28T05:47:48;6.00;;;5.50;;
13218;SDS011;6674;49.152;11.918;2023-07-28T05:50:15;5.27;;;4.87;;
13218;SDS011;6674;49.152;11.918;2023-07-28T05:52:42;6.07;;;5.57;;
13218;SDS011;6674;49.152;11.918;2023-07-28T05:55:09;6.90;;;6.20;;
13218;SDS011;6674;49.152;11.918;2023-07-28T05:57:36;5.93;;;5.43;;
13218;SDS011;6674;49.152;11.918;2023-07-28T06:00:03;5.27;;;4.87;;
13218;SDS011;6674;49.152;11.918;2023-07-28T06:02:31;5.87;;;5.37;;
13218;SDS011;6674;49.152;11.918;2023-07-28T06:04:58;5.27;;;4.77;;
13218;SDS011;6674;49.152;11.918;2023-07-28T06:07:25;5.57;;;5.17;;
13218;SDS011;6674;49.152;11.918;2023-07-28T06:09:52;5.33;;;4.93;;
13218;SDS011;6674;49.152;11.918;2023-07-28T06:12:19;5.33;;;4.90;;
13218;SDS011;6674;49.152;11.918;2023-07-28T06:14:46;5.70;;;5.03;;
13218;SDS011;6674;49.152;11.918;2023-07-28T06:17:15;5.00;;;4.60;;
13218;SDS011;6674;49.152;11.918;2023-07-28T06:19:45;5.10;;;4.70;;
13218;SDS011;6674;49.152;11.918;2023-07-28T06:22:12;5.03;;;4.63;;
13218;SDS011;6674;49.152;11.918;2023-07-28T06:24:39;5.17;;;4.67;;
13218;SDS011;6674;49.152;11.918;2023-07-28T06:27:05;5.00;;;4.60;;
13218;SDS011;6674;49.152;11.918;2023-07-28T06:29:35;5.30;;;4.80;;
13218;SDS011;6674;49.152;11.918;2023-07-28T06:32:02;5.90;;;5.37;;
13218;SDS011;6674;49.152;11.918;2023-07-28T06:34:29;5.67;;;5.07;;
13218;SDS011;6674;49.152;11.918;2023-07-28T06:36:57;5.10;;;4.70;;
13218;SDS011;6674;49.152;11.918;2023-07-28T06:39:24;5.57;;;5.07;;
13218;SDS011;6674;49.152;11.918;2023-07-28T06:41:50;5.53;;;5.03;;
13218;SDS011;6674;49.152;11.918;2023-07-28T06:44:17;5.53;;;5.13;;
13218;SDS011;6674;49.152;11.918;2023-07-28T06:46:44;5.50;;;5.00;;
13218;SDS011;6674;49.152;11.918;2023-07-28T06:49:10;5.20;;;4.80;;
13218;SDS011;6674;49.152;11.918;2023-07-28T06:51:37;5.67;;;4.57;;
13218;SDS011;6674;49.152;11.918;2023-07-28T06:54:05;5.40;;;4.90;;
13218;SDS011;6674;49.152;11.918;2023-07-28T06:56:36;5.43;;;4.87;;
13218;SDS011;6674;49.152;11.918;2023-07-28T06:59:03;5.43;;;5.00;;
13218;SDS011;6674;49.152;11.918;2023-07-28T07:01:29;5.30;;;4.80;;
13218;SDS011;6674;49.152;11.918;2023-07-28T07:03:56;5.90;;;5.37;;
13218;SDS011;6674;49.152;11.918;2023-07-28T07:06:23;5.73;;;5.23;;
13218;SDS011;6674;49.152;11.918;2023-07-28T07:08:50;5.40;;;4.97;;
13218;SDS011;6674;49.152;11.918;2023-07-28T07:11:19;5.60;;;5.10;;
13218;SDS011;6674;49.152;11.918;2023-07-28T07:13:46;5.20;;;4.70;;
13218;SDS011;6674;49.152;11.918;2023-07-28T07:16:13;4.90;;;4.50;;
13218;SDS011;6674;49.152;11.918;2023-07-28T07:18:41;5.37;;;4.83;;
13218;SDS011;6674;49.152;11.918;2023-07-28T07:21:08;5.30;;;4.90;;
13218;SDS011;6674;49.152;11.918;2023-07-28T07:23:35;5.13;;;4.63;;
13218;SDS011;6674;49.152;11.918;2023-07-28T07:26:02;5.00;;;4.60;;
13218;SDS011;6674;49.152;11.918;2023-07-28T07:28:30;5.40;;;5.00;;
13218;SDS011;6674;49.152;11.918;2023-07-28T07:30:57;5.57;;;4.70;;
13218;SDS011;6674;49.152;11.918;2023-07-28T07:33:24;5.20;;;4.70;;
13218;SDS011;6674;49.152;11.918;2023-07-28T07:35:50;4.60;;;4.20;;
13218;SDS011;6674;49.152;11.918;2023-07-28T07:38:17;5.13;;;4.73;;
13218;SDS011;6674;49.152;11.918;2023-07-28T07:40:46;4.67;;;4.00;;
13218;SDS011;6674;49.152;11.918;2023-07-28T07:43:15;4.50;;;4.10;;
13218;SDS011;6674;49.152;11.918;2023-07-28T07:45:46;4.60;;;4.20;;
13218;SDS011;6674;49.152;11.918;2023-07-28T07:48:15;4.67;;;4.17;;
13218;SDS011;6674;49.152;11.918;2023-07-28T07:50:42;4.40;;;4.00;;
13218;SDS011;6674;49.152;11.918;2023-07-28T07:53:08;4.23;;;3.93;;
13218;SDS011;6674;49.152;11.918;2023-07-28T07:55:35;4.80;;;4.30;;
13218;SDS011;6674;49.152;11.918;2023-07-28T07:58:02;4.93;;;4.43;;
13218;SDS011;6674;49.152;11.918;2023-07-28T08:00:29;4.50;;;4.10;;
13218;SDS011;6674;49.152;11.918;2023-07-28T08:02:57;4.60;;;4.30;;
13218;SDS011;6674;49.152;11.918;2023-07-28T08:05:23;4.77;;;4.27;;
13218;SDS011;6674;49.152;11.918;2023-07-28T08:07:50;4.33;;;4.03;;
13218;SDS011;6674;49.152;11.918;2023-07-28T08:10:17;4.23;;;3.83;;
13218;SDS011;6674;49.152;11.918;2023-07-28T08:12:45;4.40;;;4.00;;
13218;SDS011;6674;49.152;11.918;2023-07-28T08:15:12;4.13;;;3.83;;
13218;SDS011;6674;49.152;11.918;2023-07-28T08:17:39;4.43;;;4.13;;
13218;SDS011;6674;49.152;11.918;2023-07-28T08:20:08;4.53;;;4.13;;
13218;SDS011;6674;49.152;11.918;2023-07-28T08:22:35;3.80;;;3.50;;
13218;SDS011;6674;49.152;11.918;2023-07-28T08:25:02;3.90;;;3.60;;
13218;SDS011;6674;49.152;11.918;2023-07-28T08:27:30;4.27;;;3.87;;
13218;SDS011;6674;49.152;11.918;2023-07-28T08:29:57;4.43;;;4.00;;
13218;SDS011;6674;49.152;11.918;2023-07-28T08:32:23;4.40;;;4.00;;
13218;SDS011;6674;49.152;11.918;2023-07-28T08:34:50;4.63;;;3.60;;
13218;SDS011;6674;49.152;11.918;2023-07-28T08:37:18;4.47;;;4.17;;
13218;SDS011;6674;49.152;11.918;2023-07-28T08:39:44;5.60;;;3.87;;
13218;SDS011;6674;49.152;11.918;2023-07-28T08:42:13;4.20;;;3.90;;
13218;SDS011;6674;49.152;11.918;2023-07-28T08:44:40;4.37;;;3.97;;
13218;SDS011;6674;49.152;11.918;2023-07-28T08:47:07;4.87;;;4.37;;
13218;SDS011;6674;49.152;11.918;2023-07-28T08:49:34;4.70;;;4.30;;
13218;SDS011;6674;49.152;11.918;2023-07-28T08:52:02;3.90;;;3.60;;
13218;SDS011;6674;49.152;11.918;2023-07-28T08:54:32;3.93;;;3.63;;
13218;SDS011;6674;49.152;11.918;2023-07-28T08:56:58;4.33;;;4.03;;
13218;SDS011;6674;49.152;11.918;2023-07-28T08:59:26;4.13;;;3.60;;
13218;SDS011;6674;49.152;11.918;2023-07-28T09:01:54;4.30;;;3.90;;
13218;SDS011;6674;49.152;11.918;2023-07-28T09:04:23;4.33;;;4.00;;
13218;SDS011;6674;49.152;11.918;2023-07-28T09:06:50;4.10;;;3.80;;
13218;SDS011;6674;49.152;11.918;2023-07-28T09:09:18;3.90;;;3.60;;
13218;SDS011;6674;49.152;11.918;2023-07-28T09:11:49;5.20;;;4.00;;
13218;SDS011;6674;49.152;11.918;2023-07-28T09:14:17;4.00;;;3.70;;
13218;SDS011;6674;49.152;11.918;2023-07-28T09:16:45;4.33;;;3.93;;
13218;SDS011;6674;49.152;11.918;2023-07-28T09:19:12;3.77;;;3.40;;
13218;SDS011;6674;49.152;11.918;2023-07-28T09:21:40;4.37;;;4.07;;
13218;SDS011;6674;49.152;11.918;2023-07-28T09:24:10;4.60;;;4.20;;
13218;SDS011;6674;49.152;11.918;2023-07-28T09:26:38;4.40;;;4.00;;
13218;SDS011;6674;49.152;11.918;2023-07-28T09:29:12;4.27;;;3.87;;
13218;SDS011;6674;49.152;11.918;2023-07-28T09:31:41;3.77;;;3.50;;
13218;SDS011;6674;49.152;11.918;2023-07-28T09:34:08;4.33;;;4.00;;
13218;SDS011;6674;49.152;11.918;2023-07-28T09:36:35;4.40;;;4.00;;
13218;SDS011;6674;49.152;11.918;2023-07-28T09:39:03;4.17;;;3.87;;
13218;SDS011;6674;49.152;11.918;2023-07-28T09:41:32;3.60;;;3.30;;
13218;SDS011;6674;49.152;11.918;2023-07-28T09:44:01;3.57;;;3.27;;
13218;SDS011;6674;49.152;11.918;2023-07-28T09:46:29;4.00;;;3.70;;
13218;SDS011;6674;49.152;11.918;2023-07-28T09:48:59;3.80;;;3.53;;
13218;SDS011;6674;49.152;11.918;2023-07-28T09:51:30;4.20;;;3.90;;
13218;SDS011;6674;49.152;11.918;2023-07-28T09:54:04;4.30;;;3.93;;
13218;SDS011;6674;49.152;11.918;2023-07-28T09:56:32;4.17;;;3.87;;
13218;SDS011;6674;49.152;11.918;2023-07-28T09:59:00;4.37;;;3.97;;
13218;SDS011;6674;49.152;11.918;2023-07-28T10:01:30;4.40;;;4.00;;
13218;SDS011;6674;49.152;11.918;2023-07-28T10:03:57;4.47;;;4.17;;
13218;SDS011;6674;49.152;11.918;2023-07-28T10:06:24;4.93;;;4.53;;
13218;SDS011;6674;49.152;11.918;2023-07-28T10:08:51;4.00;;;3.60;;
13218;SDS011;6674;49.152;11.918;2023-07-28T10:11:18;5.50;;;5.00;;
13218;SDS011;6674;49.152;11.918;2023-07-28T10:13:50;4.83;;;4.43;;
13218;SDS011;6674;49.152;11.918;2023-07-28T10:16:19;4.60;;;4.30;;
13218;SDS011;6674;49.152;11.918;2023-07-28T10:18:56;4.13;;;3.83;;
13218;SDS011;6674;49.152;11.918;2023-07-28T10:21:27;4.63;;;4.23;;
13218;SDS011;6674;49.152;11.918;2023-07-28T10:23:54;3.93;;;3.63;;
13218;SDS011;6674;49.152;11.918;2023-07-28T10:26:30;4.40;;;4.00;;
13218;SDS011;6674;49.152;11.918;2023-07-28T10:29:07;4.67;;;4.27;;
13218;SDS011;6674;49.152;11.918;2023-07-28T10:31:35;3.90;;;3.60;;
13218;SDS011;6674;49.152;11.918;2023-07-28T10:34:04;3.53;;;3.23;;
13218;SDS011;6674;49.152;11.918;2023-07-28T10:36:33;4.17;;;3.87;;
13218;SDS011;6674;49.152;11.918;2023-07-28T10:39:05;4.30;;;3.90;;
13218;SDS011;6674;49.152;11.918;2023-07-28T10:41:40;3.83;;;3.50;;
13218;SDS011;6674;49.152;11.918;2023-07-28T10:44:20;3.50;;;3.20;;
13218;SDS011;6674;49.152;11.918;2023-07-28T10:46:47;4.30;;;4.00;;
13218;SDS011;6674;49.152;11.918;2023-07-28T10:49:15;4.07;;;3.77;;
13218;SDS011;6674;49.152;11.918;2023-07-28T10:51:42;4.47;;;4.07;;
13218;SDS011;6674;49.152;11.918;2023-07-28T10:54:09;4.50;;;4.10;;
13218;SDS011;6674;49.152;11.918;2023-07-28T10:56:41;4.20;;;3.90;;
13218;SDS011;6674;49.152;11.918;2023-07-28T10:59:08;4.20;;;3.80;;
13218;SDS011;6674;49.152;11.918;2023-07-28T11:01:36;3.63;;;3.30;;
13218;SDS011;6674;49.152;11.918;2023-07-28T11:04:07;3.83;;;3.53;;
13218;SDS011;6674;49.152;11.918;2023-07-28T11:06:36;4.60;;;4.20;;
13218;SDS011;6674;49.152;11.918;2023-07-28T11:09:05;4.07;;;3.67;;
13218;SDS011;6674;49.152;11.918;2023-07-28T11:11:32;4.33;;;4.00;;
13218;SDS011;6674;49.152;11.918;2023-07-28T11:14:01;4.23;;;3.80;;
13218;SDS011;6674;49.152;11.918;2023-07-28T11:19:00;4.30;;;4.00;;
13218;SDS011;6674;49.152;11.918;2023-07-28T11:21:28;4.33;;;3.93;;
13218;SDS011;6674;49.152;11.918;2023-07-28T11:23:56;4.20;;;3.70;;
13218;SDS011;6674;49.152;11.918;2023-07-28T11:26:25;3.90;;;3.60;;
13218;SDS011;6674;49.152;11.918;2023-07-28T11:28:52;3.60;;;3.40;;
13218;SDS011;6674;49.152;11.918;2023-07-28T11:31:23;3.43;;;3.13;;
13218;SDS011;6674;49.152;11.918;2023-07-28T11:33:52;3.43;;;3.10;;
13218;SDS011;6674;49.152;11.918;2023-07-28T11:36:21;3.20;;;2.90;;
13218;SDS011;6674;49.152;11.918;2023-07-28T11:38:50;3.40;;;3.10;;
13218;SDS011;6674;49.152;11.918;2023-07-28T11:41:19;3.23;;;2.93;;
13218;SDS011;6674;49.152;11.918;2023-07-28T11:43:47;3.50;;;3.20;;
13218;SDS011;6674;49.152;11.918;2023-07-28T11:46:33;3.40;;;3.10;;
13218;SDS011;6674;49.152;11.918;2023-07-28T11:49:08;3.27;;;2.97;;
13218;SDS011;6674;49.152;11.918;2023-07-28T11:51:39;3.10;;;2.90;;
13218;SDS011;6674;49.152;11.918;2023-07-28T11:54:10;3.20;;;3.00;;
13218;SDS011;6674;49.152;11.918;2023-07-28T11:56:38;3.77;;;3.33;;
13218;SDS011;6674;49.152;11.918;2023-07-28T11:59:06;4.00;;;3.70;;
13218;SDS011;6674;49.152;11.918;2023-07-28T12:01:33;3.17;;;2.87;;
13218;SDS011;6674;49.152;11.918;2023-07-28T12:07:01;2.63;;;2.37;;
13218;SDS011;6674;49.152;11.918;2023-07-28T12:09:32;2.20;;;2.00;;
13218;SDS011;6674;49.152;11.918;2023-07-28T12:12:01;2.50;;;2.33;;
13218;SDS011;6674;49.152;11.918;2023-07-28T12:14:30;2.63;;;2.43;;
13218;SDS011;6674;49.152;11.918;2023-07-28T12:16:58;2.17;;;1.97;;
13218;SDS011;6674;49.152;11.918;2023-07-28T12:19:25;2.10;;;1.70;;
13218;SDS011;6674;49.152;11.918;2023-07-28T12:21:52;1.80;;;1.70;;
13218;SDS011;6674;49.152;11.918;2023-07-28T12:24:19;1.90;;;1.80;;
13218;SDS011;6674;49.152;11.918;2023-07-28T12:26:46;2.30;;;1.80;;
13218;SDS011;6674;49.152;11.918;2023-07-28T12:29:14;4.40;;;2.13;;
13218;SDS011;6674;49.152;11.918;2023-07-28T12:31:41;1.93;;;1.83;;
13218;SDS011;6674;49.152;11.918;2023-07-28T12:34:08;2.50;;;2.30;;
13218;SDS011;6674;49.152;11.918;2023-07-28T12:36:36;2.13;;;2.03;;
13218;SDS011;6674;49.152;11.918;2023-07-28T12:39:05;2.20;;;2.07;;
13218;SDS011;6674;49.152;11.918;2023-07-28T12:41:33;2.00;;;1.90;;
13218;SDS011;6674;49.152;11.918;2023-07-28T12:44:00;2.00;;;1.90;;
13218;SDS011;6674;49.152;11.918;2023-07-28T12:46:30;1.80;;;1.70;;
13218;SDS011;6674;49.152;11.918;2023-07-28T12:48:56;1.63;;;1.53;;
13218;SDS011;6674;49.152;11.918;2023-07-28T12:51:24;2.20;;;2.10;;
13218;SDS011;6674;49.152;11.918;2023-07-28T12:53:50;2.07;;;1.97;;
13218;SDS011;6674;49.152;11.918;2023-07-28T12:56:18;1.80;;;1.70;;
13218;SDS011;6674;49.152;11.918;2023-07-28T12:58:45;2.00;;;1.80;;
13218;SDS011;6674;49.152;11.918;2023-07-28T13:01:11;2.23;;;2.03;;
13218;SDS011;6674;49.152;11.918;2023-07-28T13:03:39;2.00;;;1.90;;
13218;SDS011;6674;49.152;11.918;2023-07-28T13:06:07;1.60;;;1.50;;
13218;SDS011;6674;49.152;11.918;2023-07-28T13:08:34;1.47;;;1.33;;
13218;SDS011;6674;49.152;11.918;2023-07-28T13:11:01;1.33;;;1.23;;
13218;SDS011;6674;49.152;11.918;2023-07-28T13:13:28;1.30;;;1.20;;
13218;SDS011;6674;49.152;11.918;2023-07-28T13:15:55;1.30;;;1.20;;
13218;SDS011;6674;49.152;11.918;2023-07-28T13:18:23;1.30;;;1.20;;
13218;SDS011;6674;49.152;11.918;2023-07-28T13:20:51;1.17;;;1.03;;
13218;SDS011;6674;49.152;11.918;2023-07-28T13:23:19;1.30;;;1.20;;
13218;SDS011;6674;49.152;11.918;2023-07-28T13:25:46;1.30;;;0.90;;
13218;SDS011;6674;49.152;11.918;2023-07-28T13:28:13;0.90;;;0.90;;
13218;SDS011;6674;49.152;11.918;2023-07-28T13:30:39;0.90;;;0.90;;
13218;SDS011;6674;49.152;11.918;2023-07-28T13:33:07;0.90;;;0.90;;
13218;SDS011;6674;49.152;11.918;2023-07-28T13:35:34;1.00;;;1.00;;
13218;SDS011;6674;49.152;11.918;2023-07-28T13:38:02;0.80;;;0.80;;
13218;SDS011;6674;49.152;11.918;2023-07-28T13:40:29;1.57;;;0.90;;
13218;SDS011;6674;49.152;11.918;2023-07-28T13:42:55;0.90;;;0.90;;
13218;SDS011;6674;49.152;11.918;2023-07-28T13:45:23;0.80;;;0.80;;
13218;SDS011;6674;49.152;11.918;2023-07-28T13:47:50;0.90;;;0.90;;
13218;SDS011;6674;49.152;11.918;2023-07-28T13:50:16;1.23;;;1.10;;
13218;SDS011;6674;49.152;11.918;2023-07-28T13:52:44;1.67;;;0.80;;
13218;SDS011;6674;49.152;11.918;2023-07-28T13:55:12;1.00;;;1.00;;
13218;SDS011;6674;49.152;11.918;2023-07-28T13:57:39;0.77;;;0.77;;
13218;SDS011;6674;49.152;11.918;2023-07-28T14:00:07;1.80;;;0.80;;
13218;SDS011;6674;49.152;11.918;2023-07-28T14:02:35;0.80;;;0.80;;
13218;SDS011;6674;49.152;11.918;2023-07-28T14:05:02;1.40;;;0.70;;
13218;SDS011;6674;49.152;11.918;2023-07-28T14:07:29;0.70;;;0.70;;
13218;SDS011;6674;49.152;11.918;2023-07-28T14:09:56;0.80;;;0.80;;
13218;SDS011;6674;49.152;11.918;2023-07-28T14:12:25;0.70;;;0.70;;
13218;SDS011;6674;49.152;11.918;2023-07-28T14:14:52;0.70;;;0.70;;
13218;SDS011;6674;49.152;11.918;2023-07-28T14:17:18;0.63;;;0.63;;
13218;SDS011;6674;49.152;11.918;2023-07-28T14:19:46;0.70;;;0.70;;
13218;SDS011;6674;49.152;11.918;2023-07-28T14:22:12;0.63;;;0.63;;
13218;SDS011;6674;49.152;11.918;2023-07-28T14:24:40;0.80;;;0.73;;
13218;SDS011;6674;49.152;11.918;2023-07-28T14:27:07;0.70;;;0.70;;
13218;SDS011;6674;49.152;11.918;2023-07-28T14:29:35;0.70;;;0.70;;
13218;SDS011;6674;49.152;11.918;2023-07-28T14:32:02;0.70;;;0.70;;
13218;SDS011;6674;49.152;11.918;2023-07-28T14:34:29;0.70;;;0.70;;
13218;SDS011;6674;49.152;11.918;2023-07-28T14:36:55;0.60;;;0.60;;
13218;SDS011;6674;49.152;11.918;2023-07-28T14:39:22;1.27;;;0.67;;
13218;SDS011;6674;49.152;11.918;2023-07-28T14:41:48;0.80;;;0.67;;
13218;SDS011;6674;49.152;11.918;2023-07-28T14:44:15;0.50;;;0.50;;
13218;SDS011;6674;49.152;11.918;2023-07-28T14:46:43;0.80;;;0.80;;
13218;SDS011;6674;49.152;11.918;2023-07-28T14:49:12;0.70;;;0.70;;
13218;SDS011;6674;49.152;11.918;2023-07-28T14:51:39;1.00;;;1.00;;
13218;SDS011;6674;49.152;11.918;2023-07-28T14:54:05;0.93;;;0.83;;
13218;SDS011;6674;49.152;11.918;2023-07-28T14:56:32;1.33;;;0.80;;